Time;durP1;ratioP1;P1;durP2;ratioP2;P2;SDS_P1;SDS_P2;PMS_P1;PMS_P2;Temp;Humidity;BMP_temperature;BMP_pressure;BME280_temperature;BME280_humidity;BME280_pressure;Samples;Min_cycle;Max_cycle;Signal;HPM_P1;HPM_P2
2021/01/29 00:00:52;;;;;;;1.53;0.90;;;7.30;99.90;;;;;;5094779;28;20486;-83
2021/01/29 00:03:19;;;;;;;0.60;0.60;;;7.30;99.90;;;;;;5094310;28;20825;-83
2021/01/29 00:05:51;;;;;;;0.60;0.60;;;7.40;99.90;;;;;;5094166;28;20444;-83
2021/01/29 00:08:19;;;;;;;1.23;0.60;;;7.40;99.90;;;;;;5094640;28;20487;-82
2021/01/29 00:10:45;;;;;;;0.80;0.77;;;7.40;99.90;;;;;;5087612;28;20546;-83
2021/01/29 00:13:14;;;;;;;0.80;0.80;;;7.40;99.90;;;;;;5094678;28;20448;-82
2021/01/29 00:15:41;;;;;;;0.80;0.77;;;7.40;99.90;;;;;;5094132;28;20436;-83
2021/01/29 00:18:08;;;;;;;0.70;0.70;;;7.40;99.90;;;;;;5094268;28;20443;-83
2021/01/29 00:20:34;;;;;;;0.83;0.70;;;7.40;99.90;;;;;;5094211;28;20471;-83
2021/01/29 00:23:01;;;;;;;0.70;0.70;;;7.40;99.90;;;;;;5094049;28;20502;-83
2021/01/29 00:25:31;;;;;;;0.87;0.80;;;7.30;99.90;;;;;;5093558;28;20456;-82
2021/01/29 00:27:58;;;;;;;1.00;1.00;;;7.30;99.90;;;;;;5093822;28;20768;-82
2021/01/29 00:30:25;;;;;;;1.30;1.20;;;7.30;99.90;;;;;;5093655;28;20475;-82
2021/01/29 00:32:52;;;;;;;1.50;1.40;;;7.20;99.90;;;;;;5094018;28;20452;-82
2021/01/29 00:35:20;;;;;;;1.77;1.67;;;7.20;99.90;;;;;;5093947;28;20490;-83
2021/01/29 00:37:47;;;;;;;2.40;1.50;;;7.20;99.90;;;;;;5093700;28;20448;-82
2021/01/29 00:40:14;;;;;;;1.30;1.30;;;7.20;99.90;;;;;;5093932;28;20491;-83
2021/01/29 00:42:41;;;;;;;1.40;1.30;;;7.30;99.90;;;;;;5093921;28;20444;-83
2021/01/29 00:45:11;;;;;;;1.17;1.07;;;7.30;99.90;;;;;;5093943;28;20467;-82
2021/01/29 00:47:37;;;;;;;1.73;1.50;;;7.40;99.90;;;;;;5093950;28;20444;-82
2021/01/29 00:50:05;;;;;;;1.60;1.50;;;7.40;99.90;;;;;;5093490;28;20480;-83
2021/01/29 00:52:31;;;;;;;1.00;1.00;;;7.40;99.90;;;;;;5093905;28;20456;-82
2021/01/29 00:54:57;;;;;;;1.10;1.00;;;7.50;99.90;;;;;;5093542;28;20448;-82
2021/01/29 00:57:23;;;;;;;2.30;0.90;;;7.40;99.90;;;;;;5093338;28;20510;-82
2021/01/29 00:59:50;;;;;;;1.10;1.00;;;7.50;99.90;;;;;;5093879;28;20521;-82
2021/01/29 01:02:17;;;;;;;0.80;0.80;;;7.40;99.90;;;;;;5095747;28;20451;-82
2021/01/29 01:04:44;;;;;;;1.37;1.20;;;7.50;99.90;;;;;;5100581;28;20842;-83
2021/01/29 01:07:11;;;;;;;1.20;1.10;;;7.40;99.90;;;;;;5093326;28;20444;-82
2021/01/29 01:09:38;;;;;;;1.17;1.10;;;7.40;99.90;;;;;;5093266;28;20480;-83
2021/01/29 01:12:05;;;;;;;1.13;1.07;;;7.40;99.90;;;;;;5093383;28;20861;-82
2021/01/29 01:14:31;;;;;;;1.00;1.00;;;7.40;99.90;;;;;;5092592;28;20819;-83
2021/01/29 01:16:58;;;;;;;1.73;1.10;;;7.40;99.90;;;;;;5093041;28;20947;-83
2021/01/29 01:19:24;;;;;;;0.90;0.90;;;7.40;99.90;;;;;;5092840;28;20468;-83
2021/01/29 01:21:50;;;;;;;0.83;0.80;;;7.30;99.90;;;;;;5092781;28;20939;-82
2021/01/29 01:24:17;;;;;;;1.07;0.90;;;7.40;99.90;;;;;;5093421;28;20497;-82
2021/01/29 01:26:43;;;;;;;1.77;1.20;;;7.40;99.90;;;;;;5091817;28;20480;-82
2021/01/29 01:29:09;;;;;;;0.93;0.90;;;7.50;99.90;;;;;;5093240;28;20479;-77
2021/01/29 01:31:35;;;;;;;0.87;0.87;;;7.40;99.90;;;;;;5092670;28;20471;-82
2021/01/29 01:34:02;;;;;;;1.00;0.80;;;7.50;99.90;;;;;;5093254;28;20451;-82
2021/01/29 01:36:29;;;;;;;0.80;0.80;;;7.40;99.90;;;;;;5093116;28;20951;-81
2021/01/29 01:38:55;;;;;;;0.80;0.80;;;7.50;99.90;;;;;;5092877;28;20825;-76
2021/01/29 01:41:21;;;;;;;1.53;0.70;;;7.40;99.90;;;;;;5093479;28;20444;-82
2021/01/29 01:43:47;;;;;;;1.23;0.70;;;7.40;99.90;;;;;;5093028;28;20444;-82
2021/01/29 01:46:16;;;;;;;1.00;0.90;;;7.40;99.90;;;;;;5093226;28;20865;-82
2021/01/29 01:48:52;;;;;;;0.70;0.70;;;7.40;99.90;;;;;;5092530;28;20969;-76
2021/01/29 01:51:28;;;;;;;1.33;0.80;;;7.40;99.90;;;;;;5093372;28;20427;-82
2021/01/29 01:53:58;;;;;;;0.60;0.60;;;7.40;99.90;;;;;;5092552;28;20799;-82
2021/01/29 01:56:32;;;;;;;0.70;0.70;;;7.40;99.90;;;;;;5093320;28;20448;-82
2021/01/29 01:59:03;;;;;;;0.70;0.70;;;7.40;99.90;;;;;;5092542;28;20432;-76
2021/01/29 02:01:31;;;;;;;0.70;0.63;;;7.40;99.90;;;;;;5092968;28;20467;-77
2021/01/29 02:03:59;;;;;;;0.80;0.80;;;7.40;99.90;;;;;;5084776;28;20448;-77
2021/01/29 02:06:29;;;;;;;0.70;0.60;;;7.40;99.90;;;;;;5092595;28;20963;-77
2021/01/29 02:09:02;;;;;;;1.10;0.70;;;7.50;99.90;;;;;;5092243;28;20447;-76
2021/01/29 02:11:28;;;;;;;0.77;0.60;;;7.50;99.90;;;;;;5092622;28;20959;-76
2021/01/29 02:13:54;;;;;;;0.70;0.60;;;7.40;99.90;;;;;;5092605;28;20444;-82
2021/01/29 02:16:29;;;;;;;0.80;0.80;;;7.40;99.90;;;;;;5093130;28;20452;-82
2021/01/29 02:19:22;;;;;;;0.60;0.60;;;7.30;99.90;;;;;;5092107;28;21003;-82
2021/01/29 02:22:20;;;;;;;0.80;0.80;;;7.30;99.90;;;;;;5086068;28;20444;-83
2021/01/29 02:25:29;;;;;;;0.70;0.70;;;7.30;99.90;;;;;;5074513;28;20429;-77
2021/01/29 02:27:58;;;;;;;0.60;0.60;;;7.30;99.90;;;;;;5037984;28;20481;-77
2021/01/29 02:30:54;;;;;;;0.80;0.57;;;7.20;99.90;;;;;;5091464;28;20480;-76
2021/01/29 02:34:23;;;;;;;1.40;0.60;;;7.20;99.90;;;;;;5096046;28;20954;-82
2021/01/29 02:37:26;;;;;;;0.60;0.60;;;7.20;99.90;;;;;;5096496;28;20419;-77
2021/01/29 02:40:02;;;;;;;1.33;0.70;;;7.20;99.90;;;;;;5093231;28;21000;-83
2021/01/29 02:42:51;;;;;;;0.60;0.60;;;7.20;99.90;;;;;;5096205;28;20439;-82
2021/01/29 02:45:24;;;;;;;0.57;0.57;;;7.10;99.90;;;;;;5096291;28;20432;-77
2021/01/29 02:47:57;;;;;;;0.60;0.60;;;7.20;99.90;;;;;;5096605;28;20431;-77
2021/01/29 02:50:36;;;;;;;0.80;0.80;;;7.20;99.90;;;;;;5095130;28;20994;-77
2021/01/29 02:53:10;;;;;;;0.60;0.60;;;7.20;99.90;;;;;;5095836;28;20796;-77
2021/01/29 02:55:45;;;;;;;0.60;0.60;;;7.20;99.90;;;;;;5095538;28;20918;-82
2021/01/29 02:58:17;;;;;;;0.80;0.70;;;7.20;99.90;;;;;;5096921;28;20484;-83
2021/01/29 03:00:47;;;;;;;0.90;0.70;;;7.20;99.90;;;;;;5095521;28;21063;-82
2021/01/29 03:03:19;;;;;;;0.90;0.80;;;7.20;99.90;;;;;;5095583;28;20440;-77
2021/01/29 03:05:51;;;;;;;0.80;0.80;;;7.20;99.90;;;;;;5096035;28;20440;-77
2021/01/29 03:08:22;;;;;;;0.60;0.60;;;7.20;99.90;;;;;;5095468;28;20432;-77
2021/01/29 03:10:56;;;;;;;0.70;0.70;;;7.20;99.90;;;;;;5095296;28;20971;-77
2021/01/29 03:13:28;;;;;;;1.97;0.77;;;7.20;99.90;;;;;;5095083;28;20792;-77
2021/01/29 03:16:01;;;;;;;0.70;0.70;;;7.20;99.90;;;;;;5095475;28;20923;-77
2021/01/29 03:18:36;;;;;;;0.70;0.70;;;7.10;99.90;;;;;;5095268;28;20926;-77
2021/01/29 03:21:08;;;;;;;0.70;0.70;;;7.20;99.90;;;;;;5095336;28;20479;-82
2021/01/29 03:23:39;;;;;;;0.80;0.80;;;7.20;99.90;;;;;;5095397;28;20788;-82
2021/01/29 03:26:12;;;;;;;0.77;0.70;;;7.20;99.90;;;;;;5084551;28;20932;-82
2021/01/29 03:28:43;;;;;;;0.70;0.70;;;7.20;99.90;;;;;;5095241;28;20958;-82
2021/01/29 03:31:13;;;;;;;0.80;0.60;;;7.10;99.90;;;;;;5094780;28;20468;-77
2021/01/29 03:33:41;;;;;;;0.60;0.60;;;7.10;99.90;;;;;;5094595;28;20449;-83
2021/01/29 03:36:12;;;;;;;0.73;0.70;;;7.20;99.90;;;;;;5095022;28;20448;-78
2021/01/29 03:38:42;;;;;;;0.60;0.60;;;7.10;99.90;;;;;;5095028;28;20526;-83
2021/01/29 03:41:17;;;;;;;1.27;0.80;;;7.10;99.90;;;;;;5094958;28;20950;-83
2021/01/29 03:43:53;;;;;;;0.60;0.60;;;7.10;99.90;;;;;;5094944;28;20443;-78
2021/01/29 03:46:24;;;;;;;0.97;0.60;;;7.10;99.90;;;;;;5094377;28;20995;-78
2021/01/29 03:48:57;;;;;;;0.50;0.50;;;7.20;99.90;;;;;;5095026;28;20428;-82
2021/01/29 03:51:34;;;;;;;0.90;0.70;;;7.10;99.90;;;;;;5094880;28;20762;-77
2021/01/29 03:54:04;;;;;;;0.50;0.50;;;7.10;99.90;;;;;;5094703;28;20436;-77
2021/01/29 03:56:40;;;;;;;0.63;0.50;;;7.20;99.90;;;;;;5095087;28;20442;-77
2021/01/29 03:59:16;;;;;;;1.33;0.60;;;7.20;99.90;;;;;;5094300;28;21006;-82
2021/01/29 04:01:53;;;;;;;1.57;0.60;;;7.20;99.90;;;;;;5089876;28;20486;-82
2021/01/29 04:04:27;;;;;;;1.80;0.50;;;7.20;99.90;;;;;;5094349;28;20436;-82
2021/01/29 04:07:04;;;;;;;0.50;0.50;;;7.20;99.90;;;;;;5094281;28;20917;-78
2021/01/29 04:09:40;;;;;;;0.50;0.50;;;7.20;99.90;;;;;;5093600;28;20479;-82
2021/01/29 04:12:07;;;;;;;0.60;0.40;;;7.10;99.90;;;;;;5094088;28;20899;-77
2021/01/29 04:14:39;;;;;;;0.40;0.40;;;7.20;99.90;;;;;;5094208;28;20962;-77
2021/01/29 04:17:13;;;;;;;0.90;0.40;;;7.20;99.90;;;;;;5094638;28;20431;-77
2021/01/29 04:19:42;;;;;;;0.50;0.40;;;7.20;99.90;;;;;;5077430;28;20481;-77
2021/01/29 04:22:15;;;;;;;0.40;0.40;;;7.30;99.90;;;;;;5094156;28;20515;-78
2021/01/29 04:24:46;;;;;;;0.40;0.40;;;7.30;99.90;;;;;;5094682;28;20424;-83
2021/01/29 04:27:17;;;;;;;2.00;0.40;;;7.30;99.90;;;;;;5093690;28;20857;-82
2021/01/29 04:29:47;;;;;;;0.60;0.43;;;7.30;99.90;;;;;;5094140;28;20541;-82
2021/01/29 04:32:19;;;;;;;0.50;0.30;;;7.30;99.90;;;;;;5093347;28;20444;-77
2021/01/29 04:34:50;;;;;;;0.93;0.50;;;7.30;99.90;;;;;;5094229;28;20473;-78
2021/01/29 04:37:21;;;;;;;0.50;0.50;;;7.20;99.90;;;;;;5094296;28;20505;-77
2021/01/29 04:39:49;;;;;;;0.50;0.50;;;7.20;99.90;;;;;;5093588;28;20472;-77
2021/01/29 04:42:31;;;;;;;1.13;0.90;;;7.20;99.90;;;;;;5093610;28;20444;-77
2021/01/29 04:45:17;;;;;;;0.50;0.50;;;7.10;99.90;;;;;;5076490;28;20754;-82
2021/01/29 04:47:48;;;;;;;0.50;0.50;;;7.20;99.90;;;;;;5093947;28;20428;-77
2021/01/29 04:50:29;;;;;;;0.40;0.40;;;7.20;99.90;;;;;;5093325;28;20521;-82
2021/01/29 04:53:36;;;;;;;1.83;0.60;;;7.20;99.90;;;;;;5093836;28;20436;-77
2021/01/29 04:56:29;;;;;;;0.50;0.50;;;7.20;99.90;;;;;;5092863;28;20436;-77
2021/01/29 04:59:25;;;;;;;0.50;0.50;;;7.20;99.90;;;;;;5084627;28;20452;-77
2021/01/29 05:02:28;;;;;;;0.50;0.50;;;7.30;99.90;;;;;;5094042;28;20428;-77
2021/01/29 05:05:15;;;;;;;0.50;0.50;;;7.20;99.90;;;;;;5089826;28;20440;-77
2021/01/29 05:07:54;;;;;;;0.50;0.50;;;7.20;99.90;;;;;;5093563;28;20482;-82
2021/01/29 05:10:58;;;;;;;0.50;0.50;;;7.20;99.90;;;;;;5093199;28;20483;-82
2021/01/29 05:13:56;;;;;;;0.50;0.50;;;7.20;99.90;;;;;;5092405;28;20446;-83
2021/01/29 05:17:13;;;;;;;0.53;0.53;;;7.20;99.90;;;;;;5093336;28;20436;-77
2021/01/29 05:20:17;;;;;;;0.63;0.40;;;7.20;99.90;;;;;;5093449;28;20514;-82
2021/01/29 05:22:53;;;;;;;0.50;0.50;;;7.20;99.90;;;;;;5073040;28;20441;-77
2021/01/29 05:25:58;;;;;;;0.40;0.40;;;7.20;99.90;;;;;;5092109;28;20443;-77
2021/01/29 05:29:00;;;;;;;0.40;0.40;;;7.20;99.90;;;;;;5085175;28;20452;-77
2021/01/29 05:31:55;;;;;;;0.63;0.40;;;7.20;99.90;;;;;;5092922;28;20970;-77
2021/01/29 05:34:41;;;;;;;4.47;0.50;;;7.20;99.90;;;;;;5060301;28;20456;-82
2021/01/29 05:37:39;;;;;;;3.03;0.50;;;7.20;99.90;;;;;;5078477;28;20440;-82
2021/01/29 05:40:22;;;;;;;1.17;0.40;;;7.20;99.90;;;;;;5089113;28;21254;-82
2021/01/29 05:43:04;;;;;;;0.40;0.40;;;7.20;99.90;;;;;;5074524;28;20429;-82
2021/01/29 05:45:50;;;;;;;1.27;0.40;;;7.10;99.90;;;;;;5093876;28;20432;-77
2021/01/29 05:48:43;;;;;;;0.50;0.50;;;7.10;99.90;;;;;;5092620;28;20436;-76
2021/01/29 05:51:36;;;;;;;0.60;0.50;;;7.00;99.90;;;;;;5092938;28;20464;-82
2021/01/29 05:54:19;;;;;;;0.40;0.40;;;7.00;99.90;;;;;;5095366;28;20452;-83
2021/01/29 05:56:54;;;;;;;0.50;0.50;;;7.00;99.90;;;;;;5093768;28;20444;-84
2021/01/29 05:59:39;;;;;;;0.70;0.50;;;7.00;99.90;;;;;;5092988;28;20468;-78
2021/01/29 06:02:37;;;;;;;1.20;0.50;;;6.90;99.90;;;;;;5097059;28;20436;-82
2021/01/29 06:05:19;;;;;;;0.50;0.50;;;6.90;99.90;;;;;;5079200;28;20425;-82
2021/01/29 06:08:07;;;;;;;0.60;0.60;;;6.90;99.90;;;;;;5097298;28;20443;-77
2021/01/29 06:10:43;;;;;;;0.50;0.50;;;6.80;99.90;;;;;;5096686;28;20480;-77
2021/01/29 06:13:44;;;;;;;0.53;0.53;;;6.80;99.90;;;;;;5096648;28;20931;-83
2021/01/29 06:16:55;;;;;;;0.67;0.50;;;6.90;99.90;;;;;;5097075;28;20454;-83
2021/01/29 06:19:40;;;;;;;0.73;0.70;;;7.00;99.90;;;;;;5032403;28;20474;-78
2021/01/29 06:22:34;;;;;;;0.80;0.53;;;7.10;99.90;;;;;;5096063;28;20460;-78
2021/01/29 06:25:27;;;;;;;0.47;0.40;;;7.20;99.90;;;;;;5097585;28;20442;-83
2021/01/29 06:28:16;;;;;;;0.57;0.40;;;7.20;99.90;;;;;;5092180;28;20476;-77
2021/01/29 06:31:00;;;;;;;0.50;0.50;;;7.20;99.90;;;;;;5096221;28;20487;-81
2021/01/29 06:33:56;;;;;;;0.53;0.50;;;7.30;99.90;;;;;;5096527;28;20926;-82
2021/01/29 06:36:35;;;;;;;0.70;0.40;;;7.30;99.90;;;;;;5096241;28;20489;-83
2021/01/29 06:39:16;;;;;;;0.80;0.47;;;7.30;99.90;;;;;;5096209;28;20532;-82
2021/01/29 06:42:04;;;;;;;0.40;0.40;;;7.30;99.90;;;;;;5096690;28;20799;-82
2021/01/29 06:45:02;;;;;;;0.40;0.30;;;7.30;99.90;;;;;;5096512;28;20443;-82
2021/01/29 06:47:42;;;;;;;0.40;0.40;;;7.30;99.90;;;;;;5093738;28;20500;-76
2021/01/29 06:50:24;;;;;;;0.40;0.30;;;7.30;99.90;;;;;;5096186;28;20471;-76
2021/01/29 06:53:28;;;;;;;0.30;0.30;;;7.30;99.90;;;;;;5095980;28;20436;-76
2021/01/29 06:56:17;;;;;;;0.50;0.40;;;7.30;99.90;;;;;;5096444;28;20477;-77
2021/01/29 06:59:05;;;;;;;0.40;0.33;;;7.20;99.90;;;;;;5095010;28;20436;-82
2021/01/29 07:01:53;;;;;;;0.30;0.30;;;7.10;99.90;;;;;;5091505;28;20428;-82
2021/01/29 07:05:03;;;;;;;0.30;0.30;;;7.10;99.90;;;;;;5095786;28;20441;-82
2021/01/29 07:07:45;;;;;;;0.53;0.37;;;7.00;99.90;;;;;;5071114;28;20509;-82
2021/01/29 07:10:45;;;;;;;0.60;0.43;;;6.90;99.90;;;;;;5095072;28;20481;-82
2021/01/29 07:13:19;;;;;;;0.40;0.40;;;6.90;99.90;;;;;;5095180;28;20432;-82
2021/01/29 07:16:03;;;;;;;0.43;0.40;;;6.90;99.90;;;;;;5095144;28;20918;-82
2021/01/29 07:18:47;;;;;;;0.40;0.30;;;6.80;99.90;;;;;;5096076;28;20783;-82
2021/01/29 07:21:56;;;;;;;0.87;0.37;;;6.80;99.90;;;;;;5095858;28;20425;-81
2021/01/29 07:24:40;;;;;;;0.40;0.30;;;6.90;99.90;;;;;;5095699;28;20803;-80
2021/01/29 07:27:22;;;;;;;0.37;0.37;;;6.90;99.90;;;;;;5093626;28;21009;-81
2021/01/29 07:30:06;;;;;;;3.03;0.50;;;6.90;99.90;;;;;;5094944;28;20983;-81
2021/01/29 07:32:44;;;;;;;0.73;0.30;;;6.90;99.90;;;;;;5095438;28;20444;-80
2021/01/29 07:35:19;;;;;;;1.27;0.50;;;6.90;99.90;;;;;;5095066;28;20466;-74
2021/01/29 07:38:10;;;;;;;0.40;0.37;;;6.90;99.90;;;;;;5095167;28;20961;-75
2021/01/29 07:40:50;;;;;;;0.40;0.37;;;6.90;99.90;;;;;;5090383;28;20825;-83
2021/01/29 07:43:29;;;;;;;0.40;0.40;;;7.00;99.90;;;;;;5095392;28;20448;-76
2021/01/29 07:46:34;;;;;;;0.40;0.40;;;7.00;99.90;;;;;;5093973;28;20939;-76
2021/01/29 07:49:15;;;;;;;0.50;0.43;;;7.00;99.90;;;;;;5086737;28;20537;-76
2021/01/29 07:51:48;;;;;;;0.43;0.40;;;7.00;99.90;;;;;;5095558;28;20464;-76
2021/01/29 07:54:40;;;;;;;0.40;0.40;;;7.10;99.90;;;;;;5094914;28;20927;-83
2021/01/29 07:57:17;;;;;;;1.27;0.40;;;7.10;99.90;;;;;;5095110;28;20523;-76
2021/01/29 08:00:13;;;;;;;0.40;0.40;;;7.20;99.90;;;;;;5076937;28;20464;-76
2021/01/29 08:03:12;;;;;;;0.90;0.40;;;7.20;99.90;;;;;;5088104;28;20501;-77
2021/01/29 08:05:47;;;;;;;0.67;0.40;;;7.20;99.90;;;;;;5082239;28;20475;-77
2021/01/29 08:08:19;;;;;;;0.60;0.40;;;7.20;99.90;;;;;;5094730;28;20439;-77
2021/01/29 08:10:48;;;;;;;0.33;0.30;;;7.30;99.90;;;;;;5093861;28;21048;-77
2021/01/29 08:13:24;;;;;;;0.63;0.50;;;7.30;99.90;;;;;;5094876;28;20436;-77
2021/01/29 08:16:03;;;;;;;0.60;0.50;;;7.30;99.90;;;;;;5094430;28;20452;-77
2021/01/29 08:18:37;;;;;;;1.23;0.97;;;7.30;99.90;;;;;;5094215;28;20432;-76
2021/01/29 08:21:31;;;;;;;1.20;0.60;;;7.30;99.90;;;;;;5094243;28;20517;-76
2021/01/29 08:24:07;;;;;;;0.30;0.30;;;7.40;99.90;;;;;;5093897;28;20950;-77
2021/01/29 08:26:41;;;;;;;1.23;0.50;;;7.40;99.90;;;;;;5094059;28;20471;-75
2021/01/29 08:29:46;;;;;;;0.40;0.40;;;7.40;99.90;;;;;;5094186;28;20889;-75
2021/01/29 08:32:42;;;;;;;0.50;0.50;;;7.40;99.90;;;;;;5092211;28;20958;-75
2021/01/29 08:35:34;;;;;;;0.60;0.40;;;7.40;99.90;;;;;;5093553;28;20809;-75
2021/01/29 08:38:08;;;;;;;0.50;0.40;;;7.50;99.90;;;;;;5093763;28;20938;-82
2021/01/29 08:40:39;;;;;;;0.70;0.40;;;7.50;99.90;;;;;;5094141;28;20471;-82
2021/01/29 08:43:30;;;;;;;0.60;0.40;;;7.50;99.90;;;;;;5093105;28;20938;-82
2021/01/29 08:46:05;;;;;;;0.30;0.30;;;7.60;99.90;;;;;;5080794;28;20949;-81
2021/01/29 08:48:55;;;;;;;0.37;0.30;;;7.60;99.90;;;;;;5093988;28;20412;-76
2021/01/29 08:51:25;;;;;;;0.50;0.40;;;7.70;99.90;;;;;;5093704;28;21005;-76
2021/01/29 08:54:28;;;;;;;0.50;0.40;;;7.70;99.90;;;;;;5093517;28;20443;-76
2021/01/29 08:57:04;;;;;;;2.60;0.60;;;7.70;99.90;;;;;;5094043;28;20443;-76
2021/01/29 08:59:34;;;;;;;0.43;0.40;;;7.70;99.90;;;;;;5093750;28;20468;-76
2021/01/29 09:02:09;;;;;;;0.50;0.50;;;7.90;99.90;;;;;;5081650;28;20443;-76
2021/01/29 09:04:41;;;;;;;0.40;0.30;;;8.00;99.90;;;;;;5074152;28;20467;-76
2021/01/29 09:07:16;;;;;;;0.40;0.40;;;8.00;99.90;;;;;;5073385;28;20503;-76
2021/01/29 09:09:42;;;;;;;0.70;0.37;;;8.10;99.90;;;;;;5073590;28;20471;-76
2021/01/29 09:12:16;;;;;;;0.63;0.40;;;8.60;99.90;;;;;;5073346;28;20932;-76
2021/01/29 09:14:51;;;;;;;0.80;0.40;;;9.20;99.90;;;;;;5073247;28;20899;-76
2021/01/29 09:17:21;;;;;;;0.43;0.40;;;9.90;99.90;;;;;;5073635;28;20436;-76
2021/01/29 09:19:56;;;;;;;0.40;0.40;;;10.20;99.90;;;;;;5073501;28;20492;-76
2021/01/29 09:22:28;;;;;;;2.30;0.70;;;10.90;99.90;;;;;;5073530;28;20610;-77
2021/01/29 09:25:01;;;;;;;0.77;0.50;;;12.00;99.90;;;;;;5073237;28;20437;-76
2021/01/29 09:27:44;;;;;;;0.97;0.40;;;13.30;99.90;;;;;;5073024;28;20485;-77
2021/01/29 09:30:18;;;;;;;1.33;0.50;;;14.50;99.90;;;;;;5073273;28;20584;-77
2021/01/29 09:32:57;;;;;;;1.53;0.40;;;14.80;99.90;;;;;;5073059;28;20483;-76
2021/01/29 09:35:40;;;;;;;3.13;0.40;;;14.90;99.90;;;;;;5072909;28;20464;-77
2021/01/29 09:38:11;;;;;;;0.57;0.50;;;13.90;99.90;;;;;;5073005;28;20429;-77
2021/01/29 09:40:48;;;;;;;0.50;0.40;;;12.50;99.90;;;;;;5073221;28;20507;-77
2021/01/29 09:43:25;;;;;;;0.50;0.50;;;11.20;99.90;;;;;;5073339;28;20433;-77
2021/01/29 09:45:54;;;;;;;0.83;0.50;;;10.40;99.90;;;;;;5073268;28;20435;-77
2021/01/29 09:48:24;;;;;;;0.67;0.50;;;10.00;99.90;;;;;;5073264;28;20457;-77
2021/01/29 09:51:08;;;;;;;0.90;0.60;;;9.60;99.90;;;;;;5073663;28;20910;-83
2021/01/29 09:53:42;;;;;;;0.77;0.40;;;9.20;99.90;;;;;;5072889;28;20451;-83
2021/01/29 09:56:16;;;;;;;1.00;0.47;;;8.90;99.90;;;;;;5073230;28;20437;-76
2021/01/29 09:59:13;;;;;;;0.50;0.40;;;8.90;99.90;;;;;;5072788;28;20939;-78
2021/01/29 10:01:42;;;;;;;0.90;0.50;;;8.90;99.90;;;;;;5073117;28;20490;-80
2021/01/29 10:04:16;;;;;;;1.37;0.50;;;9.10;99.90;;;;;;5073179;28;20788;-80
2021/01/29 10:06:50;;;;;;;2.23;0.60;;;9.00;99.90;;;;;;5073760;28;20433;-81
2021/01/29 10:09:21;;;;;;;0.50;0.33;;;9.00;99.90;;;;;;5073538;28;20472;-85
2021/01/29 10:12:01;;;;;;;0.70;0.40;;;9.20;99.90;;;;;;5073125;28;20472;-83
2021/01/29 10:14:32;;;;;;;0.93;0.60;;;9.60;99.90;;;;;;5073037;28;20436;-83
2021/01/29 10:17:03;;;;;;;1.00;0.40;;;10.20;99.90;;;;;;5072723;28;20436;-77
2021/01/29 10:19:39;;;;;;;0.50;0.40;;;10.40;99.90;;;;;;5072917;28;20511;-77
2021/01/29 10:22:40;;;;;;;3.90;0.40;;;10.20;99.90;;;;;;5072616;28;20437;-77
2021/01/29 10:25:19;;;;;;;3.43;0.50;;;10.30;99.90;;;;;;5072827;28;20435;-77
2021/01/29 10:27:50;;;;;;;0.40;0.30;;;10.50;99.90;;;;;;5072569;28;20490;-77
2021/01/29 10:30:23;;;;;;;0.80;0.40;;;10.80;99.90;;;;;;5072436;28;20526;-77
2021/01/29 10:32:59;;;;;;;0.90;0.40;;;11.00;99.90;;;;;;5072933;28;20421;-77
2021/01/29 10:35:29;;;;;;;0.47;0.40;;;10.80;99.90;;;;;;5073093;28;20995;-77
2021/01/29 10:38:03;;;;;;;0.43;0.40;;;10.70;99.90;;;;;;5072889;28;20441;-83
2021/01/29 10:40:35;;;;;;;2.20;0.50;;;10.50;99.90;;;;;;5072609;28;21018;-82
2021/01/29 10:43:17;;;;;;;2.70;0.50;;;10.60;99.90;;;;;;5072516;28;20429;-82
2021/01/29 10:45:59;;;;;;;0.60;0.50;;;10.80;99.90;;;;;;5072751;28;20433;-82
2021/01/29 10:48:40;;;;;;;1.43;0.57;;;11.00;99.90;;;;;;5076229;28;20494;-78
2021/01/29 10:51:10;;;;;;;2.80;0.60;;;11.10;99.90;;;;;;5076340;28;20484;-83
2021/01/29 10:53:37;;;;;;;1.50;0.70;;;10.80;99.90;;;;;;5076220;28;20453;-77
2021/01/29 10:56:11;;;;;;;1.23;0.60;;;10.50;99.90;;;;;;5076168;28;20444;-77
2021/01/29 10:58:48;;;;;;;1.47;0.60;;;10.20;99.90;;;;;;5076195;28;20436;-81
2021/01/29 11:01:28;;;;;;;2.60;0.70;;;9.90;99.90;;;;;;5076186;28;20429;-82
2021/01/29 11:04:03;;;;;;;2.07;0.63;;;9.80;99.90;;;;;;5076126;28;20796;-83
2021/01/29 11:06:39;;;;;;;3.73;0.80;;;9.60;99.90;;;;;;5076074;28;20437;-82
2021/01/29 11:09:13;;;;;;;1.90;0.93;;;9.50;99.90;;;;;;5076152;28;20473;-83
2021/01/29 11:11:42;;;;;;;1.33;0.57;;;9.40;99.90;;;;;;5076064;28;20500;-84
2021/01/29 11:14:21;;;;;;;2.30;0.70;;;9.40;99.90;;;;;;5075627;28;20951;-76
2021/01/29 11:16:59;;;;;;;1.07;0.60;;;9.40;99.90;;;;;;5075822;28;20425;-75
2021/01/29 11:19:33;;;;;;;0.93;0.60;;;9.30;99.90;;;;;;5076074;28;20526;-77
2021/01/29 11:22:17;;;;;;;1.03;0.60;;;9.10;99.90;;;;;;5075746;28;20429;-78
2021/01/29 11:25:12;;;;;;;1.30;0.90;;;9.10;99.90;;;;;;5075690;28;20856;-78
2021/01/29 11:27:47;;;;;;;3.20;0.60;;;9.10;99.90;;;;;;5075123;28;20575;-77
2021/01/29 11:30:20;;;;;;;1.00;0.70;;;9.10;99.90;;;;;;5075431;28;20488;-77
2021/01/29 11:32:54;;;;;;;5.37;1.00;;;9.10;99.90;;;;;;5075557;28;20430;-77
2021/01/29 11:35:47;;;;;;;1.23;0.60;;;9.10;99.90;;;;;;5075492;28;20429;-77
2021/01/29 11:38:39;;;;;;;0.70;0.50;;;9.10;99.90;;;;;;5075800;28;20445;-78
2021/01/29 11:41:14;;;;;;;1.90;0.50;;;9.00;99.90;;;;;;5075316;28;20465;-77
2021/01/29 11:43:47;;;;;;;2.00;0.57;;;9.10;99.90;;;;;;5075367;28;20439;-78
2021/01/29 11:46:22;;;;;;;1.70;0.60;;;9.10;99.90;;;;;;5075007;28;20432;-77
2021/01/29 11:48:55;;;;;;;0.70;0.60;;;9.20;99.90;;;;;;5075202;28;20448;-77
2021/01/29 11:51:29;;;;;;;1.47;0.63;;;9.20;99.90;;;;;;5074849;28;20994;-78
2021/01/29 11:54:03;;;;;;;0.97;0.57;;;9.20;99.90;;;;;;5074822;28;20805;-78
2021/01/29 11:56:34;;;;;;;4.43;0.60;;;9.30;99.90;;;;;;5075118;28;20440;-78
2021/01/29 11:59:04;;;;;;;1.43;0.50;;;9.40;99.90;;;;;;5074651;28;20429;-78
2021/01/29 12:01:37;;;;;;;1.30;0.50;;;9.30;99.90;;;;;;5075033;28;20440;-79
2021/01/29 12:04:14;;;;;;;1.20;0.53;;;9.30;99.90;;;;;;5074965;28;20441;-79
2021/01/29 12:06:43;;;;;;;0.97;0.60;;;9.10;99.90;;;;;;5074578;28;20920;-78
2021/01/29 12:09:15;;;;;;;1.20;0.63;;;9.20;99.90;;;;;;5074785;28;20469;-78
2021/01/29 12:11:49;;;;;;;1.93;0.53;;;9.10;99.90;;;;;;5074479;28;20972;-78
2021/01/29 12:14:21;;;;;;;3.77;0.80;;;9.30;99.90;;;;;;5074418;28;20932;-77
2021/01/29 12:16:57;;;;;;;3.27;0.60;;;9.50;99.90;;;;;;5074693;28;20465;-78
2021/01/29 12:19:31;;;;;;;1.30;0.53;;;9.70;99.90;;;;;;5074562;28;20548;-78
2021/01/29 12:22:10;;;;;;;2.30;0.70;;;9.90;99.90;;;;;;5074610;28;20454;-79
2021/01/29 12:24:50;;;;;;;0.60;0.60;;;10.10;99.90;;;;;;5074585;28;20435;-78
2021/01/29 12:27:21;;;;;;;2.57;0.50;;;10.10;99.90;;;;;;5073939;28;21049;-77
2021/01/29 12:29:54;;;;;;;3.00;0.63;;;10.00;99.90;;;;;;5074023;28;21006;-78
2021/01/29 12:32:46;;;;;;;3.13;0.60;;;10.10;99.90;;;;;;5074797;28;20437;-77
2021/01/29 12:35:25;;;;;;;3.80;0.60;;;10.00;99.90;;;;;;5074305;28;20433;-77
2021/01/29 12:38:07;;;;;;;2.10;0.90;;;10.00;99.90;;;;;;5073973;28;20896;-77
2021/01/29 12:40:37;;;;;;;1.13;0.40;;;9.90;99.90;;;;;;5074328;28;20469;-78
2021/01/29 12:43:13;;;;;;;0.93;0.50;;;9.80;99.90;;;;;;5074958;28;20482;-78
2021/01/29 12:45:42;;;;;;;2.13;0.60;;;9.70;99.90;;;;;;5074120;28;20444;-79
2021/01/29 12:48:17;;;;;;;1.90;0.40;;;9.60;99.90;;;;;;5074091;28;20429;-78
2021/01/29 12:50:56;;;;;;;0.67;0.50;;;9.60;99.90;;;;;;5073865;28;20488;-78
2021/01/29 12:53:31;;;;;;;1.53;0.50;;;9.50;99.90;;;;;;5073705;28;20480;-78
2021/01/29 12:56:11;;;;;;;0.67;0.40;;;9.40;99.90;;;;;;5073954;28;20463;-78
2021/01/29 12:58:39;;;;;;;0.43;0.43;;;9.30;99.90;;;;;;5074171;28;20441;-78
2021/01/29 13:01:08;;;;;;;1.73;0.80;;;9.20;99.90;;;;;;5073770;28;20522;-78
2021/01/29 13:03:50;;;;;;;0.50;0.50;;;9.20;99.90;;;;;;5073848;28;20483;-78
2021/01/29 13:06:37;;;;;;;0.40;0.30;;;9.10;99.90;;;;;;5073826;28;20484;-79
2021/01/29 13:09:46;;;;;;;1.57;0.50;;;9.10;99.90;;;;;;5072867;28;20468;-78
2021/01/29 13:12:25;;;;;;;0.40;0.40;;;8.90;99.90;;;;;;5060126;28;20586;-78
2021/01/29 13:15:07;;;;;;;0.60;0.50;;;8.90;99.90;;;;;;5078386;28;20461;-78
2021/01/29 13:17:39;;;;;;;1.83;0.50;;;8.70;99.90;;;;;;5081374;28;20451;-78
2021/01/29 13:20:11;;;;;;;0.60;0.40;;;8.70;99.90;;;;;;5074712;28;20472;-78
2021/01/29 13:22:43;;;;;;;0.70;0.50;;;8.70;99.90;;;;;;5073414;28;20835;-79
2021/01/29 13:25:20;;;;;;;0.73;0.40;;;8.70;99.90;;;;;;5073385;28;20846;-79
2021/01/29 13:27:57;;;;;;;0.40;0.33;;;8.70;99.90;;;;;;5073090;28;20488;-79
2021/01/29 13:30:31;;;;;;;0.40;0.40;;;8.80;99.90;;;;;;5073283;28;20533;-79
2021/01/29 13:33:01;;;;;;;1.10;0.47;;;8.90;99.90;;;;;;5073447;28;20436;-79
2021/01/29 13:35:31;;;;;;;0.40;0.30;;;8.90;99.90;;;;;;5073708;28;20440;-79
2021/01/29 13:38:10;;;;;;;1.07;0.40;;;9.20;99.90;;;;;;5073411;28;20441;-79
2021/01/29 13:40:39;;;;;;;1.03;0.40;;;9.20;99.90;;;;;;5073318;28;20464;-79
2021/01/29 13:43:29;;;;;;;1.23;0.40;;;9.40;99.90;;;;;;5073261;28;20441;-79
2021/01/29 13:46:00;;;;;;;1.13;0.40;;;9.40;99.90;;;;;;5073315;28;20425;-79
2021/01/29 13:48:27;;;;;;;1.07;0.57;;;9.40;99.90;;;;;;5073264;28;20429;-79
2021/01/29 13:50:56;;;;;;;0.50;0.50;;;9.40;99.90;;;;;;5073095;28;20496;-79